sensor_id;sensor_type;location;lat;lon;timestamp;P1;durP1;ratioP1;P2;durP2;ratioP2
30127;SDS011;16942;53.196;6.592;2023-10-09T00:00:23;7.57;;;3.83;;
30127;SDS011;16942;53.196;6.592;2023-10-09T00:03:05;10.30;;;4.27;;
30127;SDS011;16942;53.196;6.592;2023-10-09T00:05:31;10.80;;;4.00;;
30127;SDS011;16942;53.196;6.592;2023-10-09T00:08:23;13.67;;;4.27;;
30127;SDS011;16942;53.196;6.592;2023-10-09T00:10:55;9.80;;;4.17;;
30127;SDS011;16942;53.196;6.592;2023-10-09T00:13:23;9.30;;;3.80;;
30127;SDS011;16942;53.196;6.592;2023-10-09T00:16:05;6.50;;;3.53;;
30127;SDS011;16942;53.196;6.592;2023-10-09T00:18:40;8.07;;;3.60;;
30127;SDS011;16942;53.196;6.592;2023-10-09T00:21:15;9.33;;;3.80;;
30127;SDS011;16942;53.196;6.592;2023-10-09T00:23:45;15.50;;;4.60;;
30127;SDS011;16942;53.196;6.592;2023-10-09T00:26:17;10.20;;;3.80;;
30127;SDS011;16942;53.196;6.592;2023-10-09T00:28:47;10.10;;;3.97;;
30127;SDS011;16942;53.196;6.592;2023-10-09T00:31:16;10.43;;;4.87;;
30127;SDS011;16942;53.196;6.592;2023-10-09T00:33:51;8.53;;;4.13;;
30127;SDS011;16942;53.196;6.592;2023-10-09T00:36:17;9.63;;;4.10;;
30127;SDS011;16942;53.196;6.592;2023-10-09T00:38:53;11.33;;;5.10;;
30127;SDS011;16942;53.196;6.592;2023-10-09T00:41:19;7.27;;;4.23;;
30127;SDS011;16942;53.196;6.592;2023-10-09T00:43:47;13.90;;;4.60;;
30127;SDS011;16942;53.196;6.592;2023-10-09T00:46:16;8.77;;;4.77;;
30127;SDS011;16942;53.196;6.592;2023-10-09T00:48:49;15.47;;;5.10;;
30127;SDS011;16942;53.196;6.592;2023-10-09T00:51:15;14.70;;;4.87;;
30127;SDS011;16942;53.196;6.592;2023-10-09T00:53:57;18.47;;;5.10;;
30127;SDS011;16942;53.196;6.592;2023-10-09T00:56:23;10.17;;;5.20;;
30127;SDS011;16942;53.196;6.592;2023-10-09T00:58:49;12.47;;;5.00;;
30127;SDS011;16942;53.196;6.592;2023-10-09T01:01:33;11.50;;;5.00;;
30127;SDS011;16942;53.196;6.592;2023-10-09T01:04:05;11.53;;;5.37;;
30127;SDS011;16942;53.196;6.592;2023-10-09T01:06:33;19.90;;;6.97;;
30127;SDS011;16942;53.196;6.592;2023-10-09T01:09:00;10.80;;;5.53;;
30127;SDS011;16942;53.196;6.592;2023-10-09T01:11:35;11.33;;;5.20;;
30127;SDS011;16942;53.196;6.592;2023-10-09T01:14:28;12.63;;;5.93;;
30127;SDS011;16942;53.196;6.592;2023-10-09T01:16:55;15.23;;;6.17;;
30127;SDS011;16942;53.196;6.592;2023-10-09T01:19:22;13.73;;;5.83;;
30127;SDS011;16942;53.196;6.592;2023-10-09T01:21:55;21.80;;;7.23;;
30127;SDS011;16942;53.196;6.592;2023-10-09T01:24:29;14.77;;;6.90;;
30127;SDS011;16942;53.196;6.592;2023-10-09T01:27:03;20.17;;;6.93;;
30127;SDS011;16942;53.196;6.592;2023-10-09T01:29:33;17.03;;;8.10;;
30127;SDS011;16942;53.196;6.592;2023-10-09T01:32:00;13.77;;;7.00;;
30127;SDS011;16942;53.196;6.592;2023-10-09T01:34:28;15.43;;;7.00;;
30127;SDS011;16942;53.196;6.592;2023-10-09T01:37:07;19.33;;;8.40;;
30127;SDS011;16942;53.196;6.592;2023-10-09T01:39:48;22.37;;;8.73;;
30127;SDS011;16942;53.196;6.592;2023-10-09T01:42:16;19.17;;;8.07;;
30127;SDS011;16942;53.196;6.592;2023-10-09T01:44:55;22.83;;;9.00;;
30127;SDS011;16942;53.196;6.592;2023-10-09T01:47:23;26.83;;;9.40;;
30127;SDS011;16942;53.196;6.592;2023-10-09T01:49:56;20.80;;;8.97;;
30127;SDS011;16942;53.196;6.592;2023-10-09T01:52:23;23.97;;;9.47;;
30127;SDS011;16942;53.196;6.592;2023-10-09T01:54:50;27.93;;;9.33;;
30127;SDS011;16942;53.196;6.592;2023-10-09T01:57:18;28.70;;;10.67;;
30127;SDS011;16942;53.196;6.592;2023-10-09T01:59:47;27.90;;;10.60;;
30127;SDS011;16942;53.196;6.592;2023-10-09T02:02:15;29.23;;;10.27;;
30127;SDS011;16942;53.196;6.592;2023-10-09T02:05:03;22.37;;;9.73;;
30127;SDS011;16942;53.196;6.592;2023-10-09T02:07:48;26.67;;;10.87;;
30127;SDS011;16942;53.196;6.592;2023-10-09T02:10:18;23.70;;;11.10;;
30127;SDS011;16942;53.196;6.592;2023-10-09T02:12:51;26.10;;;11.33;;
30127;SDS011;16942;53.196;6.592;2023-10-09T02:15:26;29.57;;;12.43;;
30127;SDS011;16942;53.196;6.592;2023-10-09T02:18:17;28.50;;;12.03;;
30127;SDS011;16942;53.196;6.592;2023-10-09T02:23:29;28.57;;;11.30;;
30127;SDS011;16942;53.196;6.592;2023-10-09T02:26:04;30.50;;;11.80;;
30127;SDS011;16942;53.196;6.592;2023-10-09T02:28:45;29.13;;;11.87;;
30127;SDS011;16942;53.196;6.592;2023-10-09T02:31:23;28.70;;;13.10;;
30127;SDS011;16942;53.196;6.592;2023-10-09T02:33:51;37.23;;;13.73;;
30127;SDS011;16942;53.196;6.592;2023-10-09T02:36:23;30.93;;;12.10;;
30127;SDS011;16942;53.196;6.592;2023-10-09T02:38:49;38.47;;;14.83;;
30127;SDS011;16942;53.196;6.592;2023-10-09T02:41:18;32.17;;;13.13;;
30127;SDS011;16942;53.196;6.592;2023-10-09T02:43:47;38.33;;;14.33;;
30127;SDS011;16942;53.196;6.592;2023-10-09T02:46:20;32.83;;;14.17;;
30127;SDS011;16942;53.196;6.592;2023-10-09T02:48:53;35.00;;;13.53;;
30127;SDS011;16942;53.196;6.592;2023-10-09T02:51:21;33.10;;;13.57;;
30127;SDS011;16942;53.196;6.592;2023-10-09T02:53:51;33.27;;;13.67;;
30127;SDS011;16942;53.196;6.592;2023-10-09T02:56:17;38.03;;;15.37;;
30127;SDS011;16942;53.196;6.592;2023-10-09T02:58:52;34.70;;;15.43;;
30127;SDS011;16942;53.196;6.592;2023-10-09T03:01:18;33.67;;;14.53;;
30127;SDS011;16942;53.196;6.592;2023-10-09T03:03:44;39.60;;;16.13;;
30127;SDS011;16942;53.196;6.592;2023-10-09T03:06:11;40.33;;;16.27;;
30127;SDS011;16942;53.196;6.592;2023-10-09T03:08:37;38.03;;;16.37;;
30127;SDS011;16942;53.196;6.592;2023-10-09T03:11:06;44.13;;;17.33;;
30127;SDS011;16942;53.196;6.592;2023-10-09T03:13:38;35.93;;;16.90;;
30127;SDS011;16942;53.196;6.592;2023-10-09T03:16:07;31.93;;;16.13;;
30127;SDS011;16942;53.196;6.592;2023-10-09T03:18:39;36.10;;;16.83;;
30127;SDS011;16942;53.196;6.592;2023-10-09T03:21:05;35.63;;;17.13;;
30127;SDS011;16942;53.196;6.592;2023-10-09T03:23:31;38.20;;;18.07;;
30127;SDS011;16942;53.196;6.592;2023-10-09T03:25:59;41.10;;;18.43;;
30127;SDS011;16942;53.196;6.592;2023-10-09T03:28:25;42.40;;;17.63;;
30127;SDS011;16942;53.196;6.592;2023-10-09T03:30:51;43.13;;;18.97;;
30127;SDS011;16942;53.196;6.592;2023-10-09T03:33:18;43.30;;;18.43;;
30127;SDS011;16942;53.196;6.592;2023-10-09T03:35:44;44.10;;;19.40;;
30127;SDS011;16942;53.196;6.592;2023-10-09T03:38:10;41.83;;;19.93;;
30127;SDS011;16942;53.196;6.592;2023-10-09T03:40:46;45.20;;;20.07;;
30127;SDS011;16942;53.196;6.592;2023-10-09T03:43:13;44.37;;;20.77;;
30127;SDS011;16942;53.196;6.592;2023-10-09T03:45:39;47.27;;;20.07;;
30127;SDS011;16942;53.196;6.592;2023-10-09T03:48:17;44.47;;;20.90;;
30127;SDS011;16942;53.196;6.592;2023-10-09T03:50:57;49.47;;;20.57;;
30127;SDS011;16942;53.196;6.592;2023-10-09T03:53:46;46.10;;;20.67;;
30127;SDS011;16942;53.196;6.592;2023-10-09T03:56:12;46.60;;;20.27;;
30127;SDS011;16942;53.196;6.592;2023-10-09T03:58:40;44.80;;;21.37;;
30127;SDS011;16942;53.196;6.592;2023-10-09T04:01:10;43.87;;;20.60;;
30127;SDS011;16942;53.196;6.592;2023-10-09T04:03:57;48.60;;;21.73;;
30127;SDS011;16942;53.196;6.592;2023-10-09T04:06:27;46.27;;;22.10;;
30127;SDS011;16942;53.196;6.592;2023-10-09T04:09:01;54.93;;;22.53;;
30127;SDS011;16942;53.196;6.592;2023-10-09T04:11:54;45.97;;;22.77;;
30127;SDS011;16942;53.196;6.592;2023-10-09T04:14:52;43.10;;;20.73;;
30127;SDS011;16942;53.196;6.592;2023-10-09T04:17:27;49.40;;;21.80;;
30127;SDS011;16942;53.196;6.592;2023-10-09T04:19:59;50.97;;;22.33;;
30127;SDS011;16942;53.196;6.592;2023-10-09T04:22:43;53.03;;;23.80;;
30127;SDS011;16942;53.196;6.592;2023-10-09T04:25:19;46.10;;;21.00;;
30127;SDS011;16942;53.196;6.592;2023-10-09T04:27:55;46.07;;;22.03;;
30127;SDS011;16942;53.196;6.592;2023-10-09T04:30:39;50.00;;;22.23;;
30127;SDS011;16942;53.196;6.592;2023-10-09T04:33:08;47.30;;;21.47;;
30127;SDS011;16942;53.196;6.592;2023-10-09T04:35:53;46.33;;;20.43;;
30127;SDS011;16942;53.196;6.592;2023-10-09T04:38:37;45.87;;;20.73;;
30127;SDS011;16942;53.196;6.592;2023-10-09T04:41:06;46.30;;;20.73;;
30127;SDS011;16942;53.196;6.592;2023-10-09T04:43:34;50.17;;;19.97;;
30127;SDS011;16942;53.196;6.592;2023-10-09T04:46:00;40.17;;;20.10;;
30127;SDS011;16942;53.196;6.592;2023-10-09T04:48:34;52.47;;;21.27;;
30127;SDS011;16942;53.196;6.592;2023-10-09T04:51:06;44.43;;;20.17;;
30127;SDS011;16942;53.196;6.592;2023-10-09T04:54:08;46.07;;;19.40;;
30127;SDS011;16942;53.196;6.592;2023-10-09T04:56:42;39.10;;;19.27;;
30127;SDS011;16942;53.196;6.592;2023-10-09T04:59:18;45.97;;;19.60;;
30127;SDS011;16942;53.196;6.592;2023-10-09T05:01:44;42.67;;;18.47;;
30127;SDS011;16942;53.196;6.592;2023-10-09T05:04:11;41.20;;;19.23;;
30127;SDS011;16942;53.196;6.592;2023-10-09T05:06:55;43.77;;;19.23;;
30127;SDS011;16942;53.196;6.592;2023-10-09T05:09:21;49.10;;;20.13;;
30127;SDS011;16942;53.196;6.592;2023-10-09T05:11:48;50.43;;;19.77;;
30127;SDS011;16942;53.196;6.592;2023-10-09T05:14:17;41.10;;;19.77;;
30127;SDS011;16942;53.196;6.592;2023-10-09T05:16:51;53.13;;;21.53;;
30127;SDS011;16942;53.196;6.592;2023-10-09T05:19:21;46.43;;;20.77;;
30127;SDS011;16942;53.196;6.592;2023-10-09T05:22:19;44.37;;;18.37;;
30127;SDS011;16942;53.196;6.592;2023-10-09T05:24:58;35.20;;;18.40;;
30127;SDS011;16942;53.196;6.592;2023-10-09T05:27:24;39.03;;;19.67;;
30127;SDS011;16942;53.196;6.592;2023-10-09T05:30:08;38.80;;;17.43;;
30127;SDS011;16942;53.196;6.592;2023-10-09T05:32:53;37.10;;;17.97;;
30127;SDS011;16942;53.196;6.592;2023-10-09T05:35:45;39.37;;;18.10;;
30127;SDS011;16942;53.196;6.592;2023-10-09T05:38:31;40.40;;;16.53;;
30127;SDS011;16942;53.196;6.592;2023-10-09T05:41:01;34.93;;;16.47;;
30127;SDS011;16942;53.196;6.592;2023-10-09T05:43:46;41.30;;;16.77;;
30127;SDS011;16942;53.196;6.592;2023-10-09T05:46:31;43.10;;;17.40;;
30127;SDS011;16942;53.196;6.592;2023-10-09T05:49:17;36.63;;;15.40;;
30127;SDS011;16942;53.196;6.592;2023-10-09T05:51:49;30.90;;;14.87;;
30127;SDS011;16942;53.196;6.592;2023-10-09T05:54:18;37.30;;;14.87;;
30127;SDS011;16942;53.196;6.592;2023-10-09T05:57:03;31.83;;;14.97;;
30127;SDS011;16942;53.196;6.592;2023-10-09T05:59:54;28.20;;;12.13;;
30127;SDS011;16942;53.196;6.592;2023-10-09T06:02:39;30.27;;;12.20;;
30127;SDS011;16942;53.196;6.592;2023-10-09T06:05:23;31.07;;;12.63;;
30127;SDS011;16942;53.196;6.592;2023-10-09T06:08:16;22.50;;;10.90;;
30127;SDS011;16942;53.196;6.592;2023-10-09T06:10:49;24.90;;;11.17;;
30127;SDS011;16942;53.196;6.592;2023-10-09T06:13:30;28.60;;;11.30;;
30127;SDS011;16942;53.196;6.592;2023-10-09T06:16:12;26.20;;;11.47;;
30127;SDS011;16942;53.196;6.592;2023-10-09T06:18:56;24.47;;;10.13;;
30127;SDS011;16942;53.196;6.592;2023-10-09T06:21:37;27.17;;;10.77;;
30127;SDS011;16942;53.196;6.592;2023-10-09T06:24:21;25.37;;;10.13;;
30127;SDS011;16942;53.196;6.592;2023-10-09T06:26:48;29.80;;;10.27;;
30127;SDS011;16942;53.196;6.592;2023-10-09T06:29:23;29.70;;;11.57;;
30127;SDS011;16942;53.196;6.592;2023-10-09T06:32:03;25.97;;;9.77;;
30127;SDS011;16942;53.196;6.592;2023-10-09T06:34:49;22.23;;;9.27;;
30127;SDS011;16942;53.196;6.592;2023-10-09T06:37:18;23.80;;;10.20;;
30127;SDS011;16942;53.196;6.592;2023-10-09T06:39:54;25.67;;;11.23;;
30127;SDS011;16942;53.196;6.592;2023-10-09T06:42:21;19.97;;;9.23;;
30127;SDS011;16942;53.196;6.592;2023-10-09T06:44:59;28.90;;;10.57;;
30127;SDS011;16942;53.196;6.592;2023-10-09T06:47:29;25.67;;;10.40;;
30127;SDS011;16942;53.196;6.592;2023-10-09T06:50:01;24.87;;;10.07;;
30127;SDS011;16942;53.196;6.592;2023-10-09T06:52:54;31.47;;;9.63;;
30127;SDS011;16942;53.196;6.592;2023-10-09T06:55:23;25.37;;;10.17;;
30127;SDS011;16942;53.196;6.592;2023-10-09T06:58:08;24.90;;;10.07;;
30127;SDS011;16942;53.196;6.592;2023-10-09T07:00:40;22.17;;;10.07;;
30127;SDS011;16942;53.196;6.592;2023-10-09T07:03:25;23.27;;;9.97;;
30127;SDS011;16942;53.196;6.592;2023-10-09T07:08:34;22.53;;;9.60;;
30127;SDS011;16942;53.196;6.592;2023-10-09T07:11:04;27.17;;;10.43;;
30127;SDS011;16942;53.196;6.592;2023-10-09T07:13:46;20.83;;;9.33;;
30127;SDS011;16942;53.196;6.592;2023-10-09T07:16:22;22.97;;;9.07;;
30127;SDS011;16942;53.196;6.592;2023-10-09T07:18:48;28.23;;;9.63;;
30127;SDS011;16942;53.196;6.592;2023-10-09T07:21:14;28.60;;;9.93;;
30127;SDS011;16942;53.196;6.592;2023-10-09T07:23:43;22.97;;;9.17;;
30127;SDS011;16942;53.196;6.592;2023-10-09T07:26:14;23.17;;;9.03;;
30127;SDS011;16942;53.196;6.592;2023-10-09T07:28:43;22.90;;;10.97;;
30127;SDS011;16942;53.196;6.592;2023-10-09T07:31:16;25.57;;;10.70;;
30127;SDS011;16942;53.196;6.592;2023-10-09T07:33:49;27.67;;;9.87;;
30127;SDS011;16942;53.196;6.592;2023-10-09T07:36:31;27.10;;;10.30;;
30127;SDS011;16942;53.196;6.592;2023-10-09T07:39:02;19.17;;;9.67;;
30127;SDS011;16942;53.196;6.592;2023-10-09T07:41:37;23.13;;;10.00;;
30127;SDS011;16942;53.196;6.592;2023-10-09T07:44:09;33.03;;;10.20;;
30127;SDS011;16942;53.196;6.592;2023-10-09T07:46:45;21.23;;;9.00;;
30127;SDS011;16942;53.196;6.592;2023-10-09T07:49:39;23.63;;;9.27;;
30127;SDS011;16942;53.196;6.592;2023-10-09T07:52:05;29.13;;;9.87;;
30127;SDS011;16942;53.196;6.592;2023-10-09T07:54:32;24.03;;;9.63;;
30127;SDS011;16942;53.196;6.592;2023-10-09T07:56:58;26.43;;;10.60;;
30127;SDS011;16942;53.196;6.592;2023-10-09T07:59:34;23.97;;;9.33;;
30127;SDS011;16942;53.196;6.592;2023-10-09T08:02:06;25.97;;;8.70;;
30127;SDS011;16942;53.196;6.592;2023-10-09T08:04:38;20.10;;;8.87;;
30127;SDS011;16942;53.196;6.592;2023-10-09T08:07:13;22.37;;;9.07;;
30127;SDS011;16942;53.196;6.592;2023-10-09T08:10:00;27.47;;;9.60;;
30127;SDS011;16942;53.196;6.592;2023-10-09T08:12:38;28.87;;;10.47;;
30127;SDS011;16942;53.196;6.592;2023-10-09T08:15:22;19.67;;;9.27;;
30127;SDS011;16942;53.196;6.592;2023-10-09T08:17:54;27.53;;;9.90;;
30127;SDS011;16942;53.196;6.592;2023-10-09T08:20:49;21.50;;;8.43;;
30127;SDS011;16942;53.196;6.592;2023-10-09T08:23:27;31.87;;;9.93;;
30127;SDS011;16942;53.196;6.592;2023-10-09T08:26:13;24.47;;;8.73;;
30127;SDS011;16942;53.196;6.592;2023-10-09T08:28:43;21.80;;;9.57;;
30127;SDS011;16942;53.196;6.592;2023-10-09T08:33:44;27.17;;;8.67;;
30127;SDS011;16942;53.196;6.592;2023-10-09T08:36:10;23.30;;;9.27;;
30127;SDS011;16942;53.196;6.592;2023-10-09T08:38:39;25.00;;;8.77;;
30127;SDS011;16942;53.196;6.592;2023-10-09T08:41:07;25.07;;;7.70;;
30127;SDS011;16942;53.196;6.592;2023-10-09T08:46:12;22.13;;;8.37;;
30127;SDS011;16942;53.196;6.592;2023-10-09T08:48:43;25.50;;;9.13;;
30127;SDS011;16942;53.196;6.592;2023-10-09T08:51:09;18.47;;;8.57;;
30127;SDS011;16942;53.196;6.592;2023-10-09T08:53:35;27.40;;;8.73;;
30127;SDS011;16942;53.196;6.592;2023-10-09T08:56:07;19.30;;;8.77;;
30127;SDS011;16942;53.196;6.592;2023-10-09T08:58:34;20.40;;;7.93;;
30127;SDS011;16942;53.196;6.592;2023-10-09T09:01:02;22.40;;;7.80;;
30127;SDS011;16942;53.196;6.592;2023-10-09T09:03:38;26.80;;;9.23;;
30127;SDS011;16942;53.196;6.592;2023-10-09T09:06:04;20.13;;;8.23;;
30127;SDS011;16942;53.196;6.592;2023-10-09T09:08:31;18.80;;;8.67;;
30127;SDS011;16942;53.196;6.592;2023-10-09T09:13:46;17.90;;;7.27;;
30127;SDS011;16942;53.196;6.592;2023-10-09T09:16:16;18.33;;;6.93;;
30127;SDS011;16942;53.196;6.592;2023-10-09T09:18:50;15.90;;;8.50;;
30127;SDS011;16942;53.196;6.592;2023-10-09T09:21:30;19.70;;;8.07;;
30127;SDS011;16942;53.196;6.592;2023-10-09T09:24:02;16.03;;;8.00;;
30127;SDS011;16942;53.196;6.592;2023-10-09T09:26:42;21.73;;;9.60;;
30127;SDS011;16942;53.196;6.592;2023-10-09T09:29:14;17.53;;;7.03;;
30127;SDS011;16942;53.196;6.592;2023-10-09T09:31:52;21.97;;;6.77;;
30127;SDS011;16942;53.196;6.592;2023-10-09T09:34:19;22.53;;;8.50;;
30127;SDS011;16942;53.196;6.592;2023-10-09T09:36:51;15.20;;;6.77;;
30127;SDS011;16942;53.196;6.592;2023-10-09T09:39:19;16.23;;;7.97;;
30127;SDS011;16942;53.196;6.592;2023-10-09T09:41:52;20.60;;;7.73;;
30127;SDS011;16942;53.196;6.592;2023-10-09T09:44:18;25.60;;;7.57;;
30127;SDS011;16942;53.196;6.592;2023-10-09T09:46:46;21.73;;;7.30;;
30127;SDS011;16942;53.196;6.592;2023-10-09T09:49:14;18.73;;;7.67;;
30127;SDS011;16942;53.196;6.592;2023-10-09T09:51:47;16.07;;;8.40;;
30127;SDS011;16942;53.196;6.592;2023-10-09T09:54:16;11.50;;;6.47;;
30127;SDS011;16942;53.196;6.592;2023-10-09T09:56:45;18.77;;;6.50;;
30127;SDS011;16942;53.196;6.592;2023-10-09T09:59:17;21.67;;;7.70;;
30127;SDS011;16942;53.196;6.592;2023-10-09T10:01:47;17.90;;;6.53;;
30127;SDS011;16942;53.196;6.592;2023-10-09T10:04:21;15.37;;;6.73;;
30127;SDS011;16942;53.196;6.592;2023-10-09T10:06:48;18.17;;;6.93;;
30127;SDS011;16942;53.196;6.592;2023-10-09T10:12:03;19.30;;;6.20;;
30127;SDS011;16942;53.196;6.592;2023-10-09T10:14:56;14.83;;;6.37;;
30127;SDS011;16942;53.196;6.592;2023-10-09T10:17:24;16.20;;;6.77;;
30127;SDS011;16942;53.196;6.592;2023-10-09T10:20:02;17.30;;;6.03;;
30127;SDS011;16942;53.196;6.592;2023-10-09T10:22:49;20.10;;;6.40;;
30127;SDS011;16942;53.196;6.592;2023-10-09T10:30:53;16.43;;;6.00;;
30127;SDS011;16942;53.196;6.592;2023-10-09T10:33:20;15.23;;;6.57;;
30127;SDS011;16942;53.196;6.592;2023-10-09T10:35:47;14.40;;;6.40;;
30127;SDS011;16942;53.196;6.592;2023-10-09T10:38:38;17.83;;;6.83;;
30127;SDS011;16942;53.196;6.592;2023-10-09T10:41:09;17.43;;;6.13;;
30127;SDS011;16942;53.196;6.592;2023-10-09T10:43:41;15.23;;;6.33;;
30127;SDS011;16942;53.196;6.592;2023-10-09T10:46:14;13.17;;;6.33;;
30127;SDS011;16942;53.196;6.592;2023-10-09T10:48:40;18.90;;;6.13;;
30127;SDS011;16942;53.196;6.592;2023-10-09T10:51:11;13.67;;;6.03;;
30127;SDS011;16942;53.196;6.592;2023-10-09T10:53:51;18.50;;;6.43;;
30127;SDS011;16942;53.196;6.592;2023-10-09T10:56:37;21.40;;;7.27;;
30127;SDS011;16942;53.196;6.592;2023-10-09T10:59:04;16.03;;;6.83;;
30127;SDS011;16942;53.196;6.592;2023-10-09T11:01:31;16.80;;;6.83;;
30127;SDS011;16942;53.196;6.592;2023-10-09T11:04:17;18.53;;;6.33;;
30127;SDS011;16942;53.196;6.592;2023-10-09T11:06:53;17.70;;;6.63;;
30127;SDS011;16942;53.196;6.592;2023-10-09T11:12:32;15.43;;;5.30;;
30127;SDS011;16942;53.196;6.592;2023-10-09T11:15:09;16.67;;;5.57;;
30127;SDS011;16942;53.196;6.592;2023-10-09T11:18:03;12.70;;;5.03;;
30127;SDS011;16942;53.196;6.592;2023-10-09T11:20:45;14.00;;;5.43;;
30127;SDS011;16942;53.196;6.592;2023-10-09T11:23:23;17.37;;;5.47;;
30127;SDS011;16942;53.196;6.592;2023-10-09T11:26:03;22.43;;;5.33;;
30127;SDS011;16942;53.196;6.592;2023-10-09T11:34:26;17.43;;;5.03;;
30127;SDS011;16942;53.196;6.592;2023-10-09T11:36:56;14.13;;;4.83;;
30127;SDS011;16942;53.196;6.592;2023-10-09T11:39:24;14.80;;;5.40;;
30127;SDS011;16942;53.196;6.592;2023-10-09T11:42:06;17.17;;;5.53;;
30127;SDS011;16942;53.196;6.592;2023-10-09T11:44:39;16.83;;;4.73;;
30127;SDS011;16942;53.196;6.592;2023-10-09T11:47:06;16.43;;;5.23;;
30127;SDS011;16942;53.196;6.592;2023-10-09T11:49:57;11.47;;;4.37;;
30127;SDS011;16942;53.196;6.592;2023-10-09T11:52:27;10.87;;;4.03;;
30127;SDS011;16942;53.196;6.592;2023-10-09T11:55:21;11.23;;;5.13;;
30127;SDS011;16942;53.196;6.592;2023-10-09T11:57:50;12.13;;;3.63;;
30127;SDS011;16942;53.196;6.592;2023-10-09T12:00:16;7.13;;;4.03;;
30127;SDS011;16942;53.196;6.592;2023-10-09T12:02:55;13.10;;;4.30;;
30127;SDS011;16942;53.196;6.592;2023-10-09T12:05:21;15.57;;;4.70;;
30127;SDS011;16942;53.196;6.592;2023-10-09T12:07:48;16.43;;;4.47;;
30127;SDS011;16942;53.196;6.592;2023-10-09T12:10:21;12.20;;;3.70;;
30127;SDS011;16942;53.196;6.592;2023-10-09T12:12:54;8.00;;;3.93;;
30127;SDS011;16942;53.196;6.592;2023-10-09T12:15:23;11.77;;;4.57;;
30127;SDS011;16942;53.196;6.592;2023-10-09T12:17:49;12.90;;;3.87;;
30127;SDS011;16942;53.196;6.592;2023-10-09T12:20:15;10.97;;;3.60;;
30127;SDS011;16942;53.196;6.592;2023-10-09T12:23:00;11.20;;;3.57;;
30127;SDS011;16942;53.196;6.592;2023-10-09T12:25:29;7.73;;;3.40;;
30127;SDS011;16942;53.196;6.592;2023-10-09T12:27:56;7.93;;;3.73;;
30127;SDS011;16942;53.196;6.592;2023-10-09T12:30:25;11.97;;;3.77;;
30127;SDS011;16942;53.196;6.592;2023-10-09T12:32:57;11.23;;;3.47;;
30127;SDS011;16942;53.196;6.592;2023-10-09T12:35:24;10.87;;;4.17;;
30127;SDS011;16942;53.196;6.592;2023-10-09T12:37:50;8.03;;;3.70;;
30127;SDS011;16942;53.196;6.592;2023-10-09T12:40:16;12.47;;;3.63;;
30127;SDS011;16942;53.196;6.592;2023-10-09T12:42:50;7.77;;;3.70;;
30127;SDS011;16942;53.196;6.592;2023-10-09T12:45:16;12.70;;;3.30;;
30127;SDS011;16942;53.196;6.592;2023-10-09T12:47:43;9.80;;;3.80;;
30127;SDS011;16942;53.196;6.592;2023-10-09T12:50:09;8.07;;;3.50;;
30127;SDS011;16942;53.196;6.592;2023-10-09T12:52:38;10.33;;;4.07;;
30127;SDS011;16942;53.196;6.592;2023-10-09T12:55:05;11.77;;;3.90;;
30127;SDS011;16942;53.196;6.592;2023-10-09T12:57:33;9.90;;;3.50;;
30127;SDS011;16942;53.196;6.592;2023-10-09T12:59:59;11.53;;;4.33;;
30127;SDS011;16942;53.196;6.592;2023-10-09T13:02:25;9.07;;;3.87;;
30127;SDS011;16942;53.196;6.592;2023-10-09T13:04:55;9.97;;;3.50;;
30127;SDS011;16942;53.196;6.592;2023-10-09T13:07:21;12.70;;;3.40;;
30127;SDS011;16942;53.196;6.592;2023-10-09T13:09:48;16.07;;;3.70;;
30127;SDS011;16942;53.196;6.592;2023-10-09T13:12:32;7.50;;;3.50;;
30127;SDS011;16942;53.196;6.592;2023-10-09T13:14:58;15.73;;;4.13;;
30127;SDS011;16942;53.196;6.592;2023-10-09T13:17:24;9.80;;;3.67;;
30127;SDS011;16942;53.196;6.592;2023-10-09T13:19:53;15.00;;;4.67;;
30127;SDS011;16942;53.196;6.592;2023-10-09T13:22:21;16.23;;;4.00;;
30127;SDS011;16942;53.196;6.592;2023-10-09T13:24:48;11.67;;;3.93;;
30127;SDS011;16942;53.196;6.592;2023-10-09T13:27:15;9.10;;;3.80;;
30127;SDS011;16942;53.196;6.592;2023-10-09T13:29:46;12.53;;;4.07;;
30127;SDS011;16942;53.196;6.592;2023-10-09T13:32:12;10.57;;;3.80;;
30127;SDS011;16942;53.196;6.592;2023-10-09T13:34:39;10.20;;;3.67;;
30127;SDS011;16942;53.196;6.592;2023-10-09T13:37:15;26.30;;;5.83;;
30127;SDS011;16942;53.196;6.592;2023-10-09T13:39:46;8.90;;;3.63;;
30127;SDS011;16942;53.196;6.592;2023-10-09T13:42:18;11.30;;;3.90;;
30127;SDS011;16942;53.196;6.592;2023-10-09T13:44:44;13.37;;;5.30;;
30127;SDS011;16942;53.196;6.592;2023-10-09T13:47:13;9.27;;;3.70;;
30127;SDS011;16942;53.196;6.592;2023-10-09T13:49:44;9.17;;;3.43;;
30127;SDS011;16942;53.196;6.592;2023-10-09T13:52:10;14.33;;;3.00;;
30127;SDS011;16942;53.196;6.592;2023-10-09T13:54:43;12.63;;;3.80;;
30127;SDS011;16942;53.196;6.592;2023-10-09T13:57:13;9.43;;;3.03;;
30127;SDS011;16942;53.196;6.592;2023-10-09T13:59:40;10.87;;;3.03;;
30127;SDS011;16942;53.196;6.592;2023-10-09T14:02:15;12.57;;;4.07;;
30127;SDS011;16942;53.196;6.592;2023-10-09T14:04:44;11.57;;;3.07;;
30127;SDS011;16942;53.196;6.592;2023-10-09T14:07:11;7.13;;;3.33;;
30127;SDS011;16942;53.196;6.592;2023-10-09T14:09:41;10.70;;;3.80;;
30127;SDS011;16942;53.196;6.592;2023-10-09T14:12:31;14.93;;;3.17;;
30127;SDS011;16942;53.196;6.592;2023-10-09T14:14:59;11.33;;;2.93;;
30127;SDS011;16942;53.196;6.592;2023-10-09T14:17:28;10.13;;;3.10;;
30127;SDS011;16942;53.196;6.592;2023-10-09T14:19:55;8.57;;;2.30;;
30127;SDS011;16942;53.196;6.592;2023-10-09T14:22:26;7.60;;;2.40;;
30127;SDS011;16942;53.196;6.592;2023-10-09T14:24:53;9.13;;;3.30;;
30127;SDS011;16942;53.196;6.592;2023-10-09T14:27:24;8.60;;;2.27;;
30127;SDS011;16942;53.196;6.592;2023-10-09T14:30:00;12.43;;;3.20;;
30127;SDS011;16942;53.196;6.592;2023-10-09T14:32:26;8.33;;;2.63;;
30127;SDS011;16942;53.196;6.592;2023-10-09T14:35:02;11.07;;;2.80;;
30127;SDS011;16942;53.196;6.592;2023-10-09T14:37:37;9.80;;;3.37;;
30127;SDS011;16942;53.196;6.592;2023-10-09T14:40:04;8.83;;;3.50;;
30127;SDS011;16942;53.196;6.592;2023-10-09T14:42:37;6.77;;;2.70;;
30127;SDS011;16942;53.196;6.592;2023-10-09T14:45:03;13.23;;;2.90;;
30127;SDS011;16942;53.196;6.592;2023-10-09T14:47:33;7.43;;;2.83;;
30127;SDS011;16942;53.196;6.592;2023-10-09T14:49:59;8.03;;;2.67;;
30127;SDS011;16942;53.196;6.592;2023-10-09T14:52:26;13.27;;;2.90;;
30127;SDS011;16942;53.196;6.592;2023-10-09T14:54:52;9.00;;;3.47;;
30127;SDS011;16942;53.196;6.592;2023-10-09T14:57:18;11.20;;;2.90;;
30127;SDS011;16942;53.196;6.592;2023-10-09T14:59:44;9.60;;;3.13;;
30127;SDS011;16942;53.196;6.592;2023-10-09T15:02:11;9.97;;;2.97;;
30127;SDS011;16942;53.196;6.592;2023-10-09T15:04:37;6.00;;;3.03;;
30127;SDS011;16942;53.196;6.592;2023-10-09T15:07:03;7.93;;;3.47;;
30127;SDS011;16942;53.196;6.592;2023-10-09T15:09:33;10.53;;;2.40;;
30127;SDS011;16942;53.196;6.592;2023-10-09T15:12:01;7.97;;;2.47;;
30127;SDS011;16942;53.196;6.592;2023-10-09T15:14:27;10.73;;;2.80;;
30127;SDS011;16942;53.196;6.592;2023-10-09T15:16:53;10.77;;;2.60;;
30127;SDS011;16942;53.196;6.592;2023-10-09T15:19:19;12.30;;;2.53;;
30127;SDS011;16942;53.196;6.592;2023-10-09T15:21:54;12.60;;;2.70;;
30127;SDS011;16942;53.196;6.592;2023-10-09T15:24:20;12.77;;;2.40;;
30127;SDS011;16942;53.196;6.592;2023-10-09T15:26:48;8.77;;;2.43;;
30127;SDS011;16942;53.196;6.592;2023-10-09T15:29:17;8.20;;;2.43;;
30127;SDS011;16942;53.196;6.592;2023-10-09T15:31:45;9.93;;;2.10;;
30127;SDS011;16942;53.196;6.592;2023-10-09T15:34:12;7.47;;;2.70;;